Kagamaru — JD3049 — position and weather

sailwx.info

Track history (hours):
 
Tides and Currents Weather Stations Pressure Air Temp Water Temp Dewpoint Dewpoint Depression Visibility Wind Speed Wind Dir Waves Ship Positions

Kagamaru

Last reported at 2015-May-18 01:33 UTC. Time now 2015-May-25 01:26 UTC.
Position N 35°29' E 139°39'.

Length 34 m; draft 3.6 m.

Type: Tug. MMSI: 431001272.

Date/timePositionNaut miles runAvg speedWind from/ knotsBaromVisibWave heightAir tempDewpointWater temp
2015-May-18 01:33N 35°29' E 139°39'0 0.0
2015-May-18 00:34N 35°29' E 139°39'0 0.0
2015-May-17 23:33N 35°29' E 139°39'0 0.0
2015-May-17 22:34N 35°29' E 139°39'2 0.1
2015-May-17 06:33N 35°27' E 139°39'1 1.4
2015-May-17 05:33N 35°27' E 139°41'4 3.9
2015-May-17 04:33N 35°29' E 139°45'1 1.1
2015-May-17 03:33N 35°28' E 139°46'3 3.5
2015-May-17 02:33N 35°27' E 139°42'0 0.0
2015-May-17 01:34N 35°27' E 139°42'0 0.0
2015-May-17 00:34N 35°27' E 139°42'1 1.3
2015-May-16 23:33N 35°26' E 139°41'2 1.7
2015-May-16 22:33N 35°26' E 139°43'3 3.1
2015-May-16 21:33N 35°27' E 139°39'0 0.0
2015-May-16 20:33N 35°27' E 139°39'0 0.0
2015-May-16 19:33N 35°27' E 139°39'0 0.0
2015-May-16 18:33N 35°27' E 139°39'0 0.0
2015-May-16 17:33N 35°27' E 139°39'0 0.0
2015-May-16 16:33N 35°27' E 139°39'0 0.0
2015-May-16 15:33N 35°27' E 139°39'0 0.0
2015-May-16 14:33N 35°27' E 139°39'0 0.0
2015-May-16 13:33N 35°27' E 139°39'0 0.0
2015-May-16 12:34N 35°27' E 139°39'0 0.0
2015-May-16 11:33N 35°27' E 139°39'3 2.7
2015-May-16 10:33N 35°25' E 139°42'2 1.7
2015-May-16 09:33N 35°24' E 139°41'2 1.8
2015-May-16 08:33N 35°25' E 139°42'4 3.9
2015-May-16 07:34N 35°28' E 139°39'2 1.6
2015-May-16 06:33N 35°27' E 139°39'0 0.0
2015-May-16 05:33N 35°27' E 139°39'0 0.0
2015-May-16 04:33N 35°27' E 139°39'0 0.0
2015-May-16 03:33N 35°27' E 139°39'0 0.0
2015-May-16 02:33N 35°27' E 139°39'0 0.0
2015-May-16 01:34N 35°27' E 139°39'0 0.0
2015-May-16 00:33N 35°27' E 139°39'0 0.0
2015-May-15 23:33N 35°27' E 139°39'0 0.0
2015-May-15 22:34N 35°27' E 139°39'0 0.0
2015-May-15 21:33N 35°27' E 139°39'0 0.0
2015-May-15 20:33N 35°27' E 139°39'0 0.0
2015-May-15 19:33N 35°27' E 139°39'0 0.0
2015-May-15 18:34N 35°27' E 139°39'0 0.0
2015-May-15 17:33N 35°27' E 139°39'0 0.0
2015-May-15 16:33N 35°27' E 139°39'0 0.0
2015-May-15 15:33N 35°27' E 139°39'0 0.0
2015-May-15 14:33N 35°27' E 139°39'0 0.0
2015-May-15 13:33N 35°27' E 139°39'0 0.0
2015-May-15 12:33N 35°27' E 139°39'0 0.0
2015-May-15 11:33N 35°27' E 139°39'0 0.0
2015-May-15 10:33N 35°27' E 139°39'0 0.0
2015-May-15 09:33N 35°27' E 139°39'0 0.0
2015-May-15 08:34N 35°27' E 139°39'0 0.0
2015-May-15 07:33N 35°27' E 139°39'0 0.0
2015-May-15 06:33N 35°27' E 139°39'0 0.0
2015-May-15 05:33N 35°27' E 139°39'2 2.4
2015-May-15 04:33N 35°27' E 139°42'1 1.0
2015-May-15 03:33N 35°28' E 139°43'2 1.6
2015-May-15 02:34N 35°26' E 139°44'4 4.1
2015-May-15 01:33N 35°27' E 139°39'0 0.0
2015-May-15 00:33N 35°27' E 139°39'0 0.0
2015-May-14 23:34N 35°27' E 139°39'2 1.9
2015-May-14 22:33N 35°28' E 139°42'2 1.7
2015-May-14 21:33N 35°26' E 139°42'2 2.4
2015-May-14 20:33N 35°27' E 139°39'0 0.0
2015-May-14 19:33N 35°27' E 139°39'0 0.0
2015-May-14 18:33N 35°27' E 139°39'0 0.0
2015-May-14 17:33N 35°27' E 139°39'0 0.0
2015-May-14 16:33N 35°27' E 139°39'0 0.0
2015-May-14 15:33N 35°27' E 139°39'0 0.0
2015-May-14 14:33N 35°27' E 139°39'0 0.0
2015-May-14 13:33N 35°27' E 139°39'0 0.0
2015-May-14 12:34N 35°27' E 139°39'0 0.0
2015-May-14 11:33N 35°27' E 139°39'0 0.0
2015-May-14 10:33N 35°27' E 139°39'0 0.0
2015-May-14 09:33N 35°27' E 139°39'0 0.0
2015-May-14 08:33N 35°27' E 139°39'0 0.0
2015-May-14 07:33N 35°27' E 139°39'0 0.0
2015-May-14 06:33N 35°27' E 139°39'0 0.0
2015-May-14 05:33N 35°27' E 139°39'0 0.0
2015-May-14 04:33N 35°27' E 139°39'0 0.0
2015-May-14 03:33N 35°27' E 139°39'3 2.6
2015-May-14 02:33N 35°27' E 139°42'2 1.8
2015-May-14 01:33N 35°28' E 139°44'1 0.8
2015-May-14 00:34N 35°27' E 139°44'1 0.7
2015-May-13 23:33N 35°28' E 139°45'1 0.9
2015-May-13 22:33N 35°29' E 139°45'2 2.3
2015-May-13 21:33N 35°28' E 139°47'6 6.2
2015-May-13 20:33N 35°27' E 139°39'0 0.1
2015-May-13 18:27N 35°27' E 139°39'0 0.0
2015-May-13 17:34N 35°27' E 139°39'0 0.0
2015-May-13 16:33N 35°27' E 139°39'0 0.0
2015-May-13 15:33N 35°27' E 139°39'0 0.0
2015-May-13 14:33N 35°27' E 139°39'3 3.4
2015-May-13 13:33N 35°29' E 139°42'1 1.4
2015-May-13 12:33N 35°30' E 139°44'5 4.8
2015-May-13 11:33N 35°27' E 139°39'0 0.0
2015-May-13 10:33N 35°27' E 139°39'0 0.0
2015-May-13 09:33N 35°27' E 139°39'0 0.0
2015-May-13 08:33N 35°27' E 139°39'0 0.0
2015-May-13 07:34N 35°27' E 139°39'3 3.0
2015-May-13 06:33N 35°28' E 139°43'2 1.7
2015-May-13 05:33N 35°26' E 139°42'1 0.5
2015-May-13 04:33N 35°27' E 139°42'2 1.8
2015-May-13 03:33N 35°27' E 139°44'4 3.8
2015-May-13 02:34N 35°27' E 139°39'4 4.3
2015-May-13 01:33N 35°30' E 139°44'2 2.0
2015-May-13 00:33N 35°31' E 139°46'3 3.3
2015-May-12 23:33N 35°28' E 139°44'4 4.5
2015-May-12 22:33N 35°28' E 139°38'0 0.0
2015-May-12 21:33N 35°28' E 139°38'0 0.0
2015-May-12 20:33N 35°28' E 139°38'0 0.0
2015-May-12 19:33N 35°28' E 139°38'0 0.0
2015-May-12 18:34N 35°28' E 139°38'0 0.0
2015-May-12 17:33N 35°28' E 139°38'0 0.0
2015-May-12 16:33N 35°28' E 139°38'0 0.0
2015-May-12 15:33N 35°28' E 139°38'0 0.0
2015-May-12 14:34N 35°28' E 139°38'0 0.0
2015-May-12 13:33N 35°28' E 139°38'0 0.0
2015-May-12 12:33N 35°28' E 139°38'0 0.0
2015-May-12 11:33N 35°28' E 139°38'0 0.0
2015-May-12 10:33N 35°28' E 139°38'0 0.0
2015-May-12 09:33N 35°28' E 139°38'0 0.0
2015-May-12 08:33N 35°28' E 139°38'0 0.0
2015-May-12 07:33N 35°28' E 139°38'0 0.0
2015-May-12 06:33N 35°28' E 139°38'0 0.0
2015-May-12 05:33N 35°28' E 139°38'0 0.0
2015-May-12 04:33N 35°28' E 139°38'0 0.0
2015-May-12 03:33N 35°28' E 139°38'0 0.0
2015-May-12 02:33N 35°28' E 139°38'0 0.0
2015-May-12 01:33N 35°28' E 139°38'0 0.0
2015-May-12 00:33N 35°28' E 139°38'2 2.1
2015-May-11 23:33N 35°27' E 139°40'3 3.2
2015-May-11 22:33N 35°26' E 139°44'2 2.1
2015-May-11 21:33N 35°28' E 139°42'0 0.0
2015-May-11 20:33N 35°28' E 139°42'0 0.0
2015-May-11 19:33N 35°28' E 139°42'0 0.3
2015-May-11 18:33N 35°28' E 139°42'0 0.3
2015-May-11 17:33N 35°28' E 139°42'0 0.0
2015-May-11 16:34N 35°28' E 139°42'2 1.6
2015-May-11 15:34N 35°28' E 139°40'1 1.1
2015-May-11 14:33N 35°28' E 139°41'1 0.5
2015-May-11 13:33N 35°28' E 139°42'0 0.0
2015-May-11 12:33N 35°28' E 139°42'0 0.0
2015-May-11 11:33N 35°28' E 139°42'0 0.0
2015-May-11 10:34N 35°28' E 139°42'1 0.8
2015-May-11 09:33N 35°27' E 139°43'3 3.0
2015-May-11 08:34N 35°27' E 139°39'0 0.2
2015-May-11 07:33N 35°27' E 139°39'0 0.0
2015-May-11 06:33N 35°27' E 139°39'0 0.0
2015-May-11 05:33N 35°27' E 139°39'0 0.0
2015-May-11 04:33N 35°27' E 139°39'0 0.0
2015-May-11 03:33N 35°27' E 139°39'0 0.0
2015-May-11 02:33N 35°27' E 139°39'0 0.0
2015-May-11 01:33N 35°27' E 139°39'0 0.0
2015-May-11 00:33N 35°27' E 139°39'0 0.0
2015-May-10 23:33N 35°27' E 139°39'0 0.0
2015-May-10 22:34N 35°27' E 139°39'0 0.0
2015-May-10 21:33N 35°27' E 139°39'0 0.0
2015-May-10 20:33N 35°27' E 139°39'0 0.0
2015-May-10 19:33N 35°27' E 139°39'0 0.0
2015-May-10 18:33N 35°27' E 139°39'0 0.0
2015-May-10 17:34N 35°27' E 139°39'0 0.0
2015-May-10 16:33N 35°27' E 139°39'0 0.0
2015-May-10 15:33N 35°27' E 139°39'0 0.0
2015-May-10 14:33N 35°27' E 139°39'0 0.0
2015-May-10 13:33N 35°27' E 139°39'0 0.0
2015-May-10 12:33N 35°27' E 139°39'0 0.0
2015-May-10 11:33N 35°27' E 139°39'0 0.0
2015-May-10 10:33N 35°27' E 139°39'0 0.0
2015-May-10 09:33N 35°27' E 139°39'0 0.0
2015-May-10 08:33N 35°27' E 139°39'0 0.0
2015-May-10 07:33N 35°27' E 139°39'0 0.0
2015-May-10 06:33N 35°27' E 139°39'0 0.0
2015-May-10 05:33N 35°27' E 139°39'0 0.0
2015-May-10 04:33N 35°27' E 139°39'0 0.0
2015-May-10 03:33N 35°27' E 139°39'0 0.0
2015-May-10 02:33N 35°27' E 139°39'0 0.0
2015-May-10 01:33N 35°27' E 139°39'0 0.0
2015-May-10 00:33N 35°27' E 139°39'3 2.6
2015-May-09 23:33N 35°27' E 139°42'4 3.9
2015-May-09 22:33N 35°30' E 139°46'3 2.5
2015-May-09 21:33N 35°27' E 139°45'5 4.9
2015-May-09 20:33N 35°27' E 139°39'0 0.0
2015-May-09 19:33N 35°27' E 139°39'0 0.0
2015-May-09 18:33N 35°27' E 139°39'0 0.0
2015-May-09 17:33N 35°27' E 139°39'0 0.0
2015-May-09 16:33N 35°27' E 139°39'0 0.0
2015-May-09 15:33N 35°27' E 139°39'0 0.0
2015-May-09 14:33N 35°27' E 139°39'0 0.0
2015-May-09 13:33N 35°27' E 139°39'0 0.0
2015-May-09 12:33N 35°27' E 139°39'3 3.1
2015-May-09 11:33N 35°24' E 139°40'0 0.1
2015-May-09 10:34N 35°24' E 139°40'3 3.2
2015-May-09 09:33N 35°26' E 139°43'1 1.3
2015-May-09 08:33N 35°26' E 139°42'1 0.8
2015-May-09 07:33N 35°26' E 139°41'1 1.4
2015-May-09 06:33N 35°28' E 139°41'0 0.0
2015-May-09 05:33N 35°28' E 139°41'0 0.0
2015-May-09 04:33N 35°28' E 139°41'0 0.0
2015-May-09 03:33N 35°28' E 139°41'0 0.0
2015-May-09 02:33N 35°28' E 139°41'1 0.5
2015-May-09 01:33N 35°27' E 139°41'1 1.2
2015-May-09 00:34N 35°27' E 139°42'0 0.3
2015-May-08 23:33N 35°27' E 139°42'2 1.5
2015-May-08 22:34N 35°27' E 139°40'1 1.2
2015-May-08 21:33N 35°26' E 139°41'1 1.4
2015-May-08 20:33N 35°27' E 139°39'0 0.0
2015-May-08 19:33N 35°27' E 139°39'0 0.0
2015-May-08 18:33N 35°27' E 139°39'0 0.0
2015-May-08 17:33N 35°27' E 139°39'0 0.0
2015-May-08 16:33N 35°27' E 139°39'0 0.0
2015-May-08 15:33N 35°27' E 139°39'0 0.0
2015-May-08 14:33N 35°27' E 139°39'0 0.0
2015-May-08 13:33N 35°27' E 139°39'0 0.0
2015-May-08 12:33N 35°27' E 139°39'0 0.0
2015-May-08 11:33N 35°27' E 139°39'0 0.0
2015-May-08 10:33N 35°27' E 139°39'0 0.0
2015-May-08 09:33N 35°27' E 139°39'0 0.0
2015-May-08 08:33N 35°27' E 139°39'0 0.0
2015-May-08 07:33N 35°27' E 139°39'0 0.3
2015-May-08 06:33N 35°27' E 139°39'0 0.0
2015-May-08 05:33N 35°27' E 139°39'0 0.0
2015-May-08 04:33N 35°27' E 139°39'3 3.3
2015-May-08 03:33N 35°24' E 139°39'1 0.6
2015-May-08 02:33N 35°24' E 139°38'  
Track history (hours):
 
Tides and Currents Weather Stations Pressure Air Temp Water Temp Dewpoint Dewpoint Depression Visibility Wind Speed Wind Dir Waves Ship Positions

Kagamaru

Last reported at 2015-May-18 01:33 UTC. Time now 2015-May-25 01:26 UTC.
Position N 35°29' E 139°39'.

Length 34 m; draft 3.6 m.

Type: Tug. MMSI: 431001272.

Date/timePositionNaut miles runAvg speedWind from/ knotsBaromVisibWave heightAir tempDewpointWater temp
2015-May-18 01:33N 35°29' E 139°39'0 0.0
2015-May-18 00:34N 35°29' E 139°39'0 0.0
2015-May-17 23:33N 35°29' E 139°39'0 0.0
2015-May-17 22:34N 35°29' E 139°39'2 0.1
2015-May-17 06:33N 35°27' E 139°39'1 1.4
2015-May-17 05:33N 35°27' E 139°41'4 3.9
2015-May-17 04:33N 35°29' E 139°45'1 1.1
2015-May-17 03:33N 35°28' E 139°46'3 3.5
2015-May-17 02:33N 35°27' E 139°42'0 0.0
2015-May-17 01:34N 35°27' E 139°42'0 0.0
2015-May-17 00:34N 35°27' E 139°42'1 1.3
2015-May-16 23:33N 35°26' E 139°41'2 1.7
2015-May-16 22:33N 35°26' E 139°43'3 3.1
2015-May-16 21:33N 35°27' E 139°39'0 0.0
2015-May-16 20:33N 35°27' E 139°39'0 0.0
2015-May-16 19:33N 35°27' E 139°39'0 0.0
2015-May-16 18:33N 35°27' E 139°39'0 0.0
2015-May-16 17:33N 35°27' E 139°39'0 0.0
2015-May-16 16:33N 35°27' E 139°39'0 0.0
2015-May-16 15:33N 35°27' E 139°39'0 0.0
2015-May-16 14:33N 35°27' E 139°39'0 0.0
2015-May-16 13:33N 35°27' E 139°39'0 0.0
2015-May-16 12:34N 35°27' E 139°39'0 0.0
2015-May-16 11:33N 35°27' E 139°39'3 2.7
2015-May-16 10:33N 35°25' E 139°42'2 1.7
2015-May-16 09:33N 35°24' E 139°41'2 1.8
2015-May-16 08:33N 35°25' E 139°42'4 3.9
2015-May-16 07:34N 35°28' E 139°39'2 1.6
2015-May-16 06:33N 35°27' E 139°39'0 0.0
2015-May-16 05:33N 35°27' E 139°39'0 0.0
2015-May-16 04:33N 35°27' E 139°39'0 0.0
2015-May-16 03:33N 35°27' E 139°39'0 0.0
2015-May-16 02:33N 35°27' E 139°39'0 0.0
2015-May-16 01:34N 35°27' E 139°39'0 0.0
2015-May-16 00:33N 35°27' E 139°39'0 0.0
2015-May-15 23:33N 35°27' E 139°39'0 0.0
2015-May-15 22:34N 35°27' E 139°39'0 0.0
2015-May-15 21:33N 35°27' E 139°39'0 0.0
2015-May-15 20:33N 35°27' E 139°39'0 0.0
2015-May-15 19:33N 35°27' E 139°39'0 0.0
2015-May-15 18:34N 35°27' E 139°39'0 0.0
2015-May-15 17:33N 35°27' E 139°39'0 0.0
2015-May-15 16:33N 35°27' E 139°39'0 0.0
2015-May-15 15:33N 35°27' E 139°39'0 0.0
2015-May-15 14:33N 35°27' E 139°39'0 0.0
2015-May-15 13:33N 35°27' E 139°39'0 0.0
2015-May-15 12:33N 35°27' E 139°39'0 0.0
2015-May-15 11:33N 35°27' E 139°39'0 0.0
2015-May-15 10:33N 35°27' E 139°39'0 0.0
2015-May-15 09:33N 35°27' E 139°39'0 0.0
2015-May-15 08:34N 35°27' E 139°39'0 0.0
2015-May-15 07:33N 35°27' E 139°39'0 0.0
2015-May-15 06:33N 35°27' E 139°39'0 0.0
2015-May-15 05:33N 35°27' E 139°39'2 2.4
2015-May-15 04:33N 35°27' E 139°42'1 1.0
2015-May-15 03:33N 35°28' E 139°43'2 1.6
2015-May-15 02:34N 35°26' E 139°44'4 4.1
2015-May-15 01:33N 35°27' E 139°39'0 0.0
2015-May-15 00:33N 35°27' E 139°39'0 0.0
2015-May-14 23:34N 35°27' E 139°39'2 1.9
2015-May-14 22:33N 35°28' E 139°42'2 1.7
2015-May-14 21:33N 35°26' E 139°42'2 2.4
2015-May-14 20:33N 35°27' E 139°39'0 0.0
2015-May-14 19:33N 35°27' E 139°39'0 0.0
2015-May-14 18:33N 35°27' E 139°39'0 0.0
2015-May-14 17:33N 35°27' E 139°39'0 0.0
2015-May-14 16:33N 35°27' E 139°39'0 0.0
2015-May-14 15:33N 35°27' E 139°39'0 0.0
2015-May-14 14:33N 35°27' E 139°39'0 0.0
2015-May-14 13:33N 35°27' E 139°39'0 0.0
2015-May-14 12:34N 35°27' E 139°39'0 0.0
2015-May-14 11:33N 35°27' E 139°39'0 0.0
2015-May-14 10:33N 35°27' E 139°39'0 0.0
2015-May-14 09:33N 35°27' E 139°39'0 0.0
2015-May-14 08:33N 35°27' E 139°39'0 0.0
2015-May-14 07:33N 35°27' E 139°39'0 0.0
2015-May-14 06:33N 35°27' E 139°39'0 0.0
2015-May-14 05:33N 35°27' E 139°39'0 0.0
2015-May-14 04:33N 35°27' E 139°39'0 0.0
2015-May-14 03:33N 35°27' E 139°39'3 2.6
2015-May-14 02:33N 35°27' E 139°42'2 1.8
2015-May-14 01:33N 35°28' E 139°44'1 0.8
2015-May-14 00:34N 35°27' E 139°44'1 0.7
2015-May-13 23:33N 35°28' E 139°45'1 0.9
2015-May-13 22:33N 35°29' E 139°45'2 2.3
2015-May-13 21:33N 35°28' E 139°47'6 6.2
2015-May-13 20:33N 35°27' E 139°39'0 0.1
2015-May-13 18:27N 35°27' E 139°39'0 0.0
2015-May-13 17:34N 35°27' E 139°39'0 0.0
2015-May-13 16:33N 35°27' E 139°39'0 0.0
2015-May-13 15:33N 35°27' E 139°39'0 0.0
2015-May-13 14:33N 35°27' E 139°39'3 3.4
2015-May-13 13:33N 35°29' E 139°42'1 1.4
2015-May-13 12:33N 35°30' E 139°44'5 4.8
2015-May-13 11:33N 35°27' E 139°39'0 0.0
2015-May-13 10:33N 35°27' E 139°39'0 0.0
2015-May-13 09:33N 35°27' E 139°39'0 0.0
2015-May-13 08:33N 35°27' E 139°39'0 0.0
2015-May-13 07:34N 35°27' E 139°39'3 3.0
2015-May-13 06:33N 35°28' E 139°43'2 1.7
2015-May-13 05:33N 35°26' E 139°42'1 0.5
2015-May-13 04:33N 35°27' E 139°42'2 1.8
2015-May-13 03:33N 35°27' E 139°44'4 3.8
2015-May-13 02:34N 35°27' E 139°39'4 4.3
2015-May-13 01:33N 35°30' E 139°44'2 2.0
2015-May-13 00:33N 35°31' E 139°46'3 3.3
2015-May-12 23:33N 35°28' E 139°44'4 4.5
2015-May-12 22:33N 35°28' E 139°38'0 0.0
2015-May-12 21:33N 35°28' E 139°38'0 0.0
2015-May-12 20:33N 35°28' E 139°38'0 0.0
2015-May-12 19:33N 35°28' E 139°38'0 0.0
2015-May-12 18:34N 35°28' E 139°38'0 0.0
2015-May-12 17:33N 35°28' E 139°38'0 0.0
2015-May-12 16:33N 35°28' E 139°38'0 0.0
2015-May-12 15:33N 35°28' E 139°38'0 0.0
2015-May-12 14:34N 35°28' E 139°38'0 0.0
2015-May-12 13:33N 35°28' E 139°38'0 0.0
2015-May-12 12:33N 35°28' E 139°38'0 0.0
2015-May-12 11:33N 35°28' E 139°38'0 0.0
2015-May-12 10:33N 35°28' E 139°38'0 0.0
2015-May-12 09:33N 35°28' E 139°38'0 0.0
2015-May-12 08:33N 35°28' E 139°38'0 0.0
2015-May-12 07:33N 35°28' E 139°38'0 0.0
2015-May-12 06:33N 35°28' E 139°38'0 0.0
2015-May-12 05:33N 35°28' E 139°38'0 0.0
2015-May-12 04:33N 35°28' E 139°38'0 0.0
2015-May-12 03:33N 35°28' E 139°38'0 0.0
2015-May-12 02:33N 35°28' E 139°38'0 0.0
2015-May-12 01:33N 35°28' E 139°38'0 0.0
2015-May-12 00:33N 35°28' E 139°38'2 2.1
2015-May-11 23:33N 35°27' E 139°40'3 3.2
2015-May-11 22:33N 35°26' E 139°44'2 2.1
2015-May-11 21:33N 35°28' E 139°42'0 0.0
2015-May-11 20:33N 35°28' E 139°42'0 0.0
2015-May-11 19:33N 35°28' E 139°42'0 0.3
2015-May-11 18:33N 35°28' E 139°42'0 0.3
2015-May-11 17:33N 35°28' E 139°42'0 0.0
2015-May-11 16:34N 35°28' E 139°42'2 1.6
2015-May-11 15:34N 35°28' E 139°40'1 1.1
2015-May-11 14:33N 35°28' E 139°41'1 0.5
2015-May-11 13:33N 35°28' E 139°42'0 0.0
2015-May-11 12:33N 35°28' E 139°42'0 0.0
2015-May-11 11:33N 35°28' E 139°42'0 0.0
2015-May-11 10:34N 35°28' E 139°42'1 0.8
2015-May-11 09:33N 35°27' E 139°43'3 3.0
2015-May-11 08:34N 35°27' E 139°39'0 0.2
2015-May-11 07:33N 35°27' E 139°39'0 0.0
2015-May-11 06:33N 35°27' E 139°39'0 0.0
2015-May-11 05:33N 35°27' E 139°39'0 0.0
2015-May-11 04:33N 35°27' E 139°39'0 0.0
2015-May-11 03:33N 35°27' E 139°39'0 0.0
2015-May-11 02:33N 35°27' E 139°39'0 0.0
2015-May-11 01:33N 35°27' E 139°39'0 0.0
2015-May-11 00:33N 35°27' E 139°39'0 0.0
2015-May-10 23:33N 35°27' E 139°39'0 0.0
2015-May-10 22:34N 35°27' E 139°39'0 0.0
2015-May-10 21:33N 35°27' E 139°39'0 0.0
2015-May-10 20:33N 35°27' E 139°39'0 0.0
2015-May-10 19:33N 35°27' E 139°39'0 0.0
2015-May-10 18:33N 35°27' E 139°39'0 0.0
2015-May-10 17:34N 35°27' E 139°39'0 0.0
2015-May-10 16:33N 35°27' E 139°39'0 0.0
2015-May-10 15:33N 35°27' E 139°39'0 0.0
2015-May-10 14:33N 35°27' E 139°39'0 0.0
2015-May-10 13:33N 35°27' E 139°39'0 0.0
2015-May-10 12:33N 35°27' E 139°39'0 0.0
2015-May-10 11:33N 35°27' E 139°39'0 0.0
2015-May-10 10:33N 35°27' E 139°39'0 0.0
2015-May-10 09:33N 35°27' E 139°39'0 0.0
2015-May-10 08:33N 35°27' E 139°39'0 0.0
2015-May-10 07:33N 35°27' E 139°39'0 0.0
2015-May-10 06:33N 35°27' E 139°39'0 0.0
2015-May-10 05:33N 35°27' E 139°39'0 0.0
2015-May-10 04:33N 35°27' E 139°39'0 0.0
2015-May-10 03:33N 35°27' E 139°39'0 0.0
2015-May-10 02:33N 35°27' E 139°39'0 0.0
2015-May-10 01:33N 35°27' E 139°39'0 0.0
2015-May-10 00:33N 35°27' E 139°39'3 2.6
2015-May-09 23:33N 35°27' E 139°42'4 3.9
2015-May-09 22:33N 35°30' E 139°46'3 2.5
2015-May-09 21:33N 35°27' E 139°45'5 4.9
2015-May-09 20:33N 35°27' E 139°39'0 0.0
2015-May-09 19:33N 35°27' E 139°39'0 0.0
2015-May-09 18:33N 35°27' E 139°39'0 0.0
2015-May-09 17:33N 35°27' E 139°39'0 0.0
2015-May-09 16:33N 35°27' E 139°39'0 0.0
2015-May-09 15:33N 35°27' E 139°39'0 0.0
2015-May-09 14:33N 35°27' E 139°39'0 0.0
2015-May-09 13:33N 35°27' E 139°39'0 0.0
2015-May-09 12:33N 35°27' E 139°39'3 3.1
2015-May-09 11:33N 35°24' E 139°40'0 0.1
2015-May-09 10:34N 35°24' E 139°40'3 3.2
2015-May-09 09:33N 35°26' E 139°43'1 1.3
2015-May-09 08:33N 35°26' E 139°42'1 0.8
2015-May-09 07:33N 35°26' E 139°41'1 1.4
2015-May-09 06:33N 35°28' E 139°41'0 0.0
2015-May-09 05:33N 35°28' E 139°41'0 0.0
2015-May-09 04:33N 35°28' E 139°41'0 0.0
2015-May-09 03:33N 35°28' E 139°41'0 0.0
2015-May-09 02:33N 35°28' E 139°41'1 0.5
2015-May-09 01:33N 35°27' E 139°41'1 1.2
2015-May-09 00:34N 35°27' E 139°42'0 0.3
2015-May-08 23:33N 35°27' E 139°42'2 1.5
2015-May-08 22:34N 35°27' E 139°40'1 1.2
2015-May-08 21:33N 35°26' E 139°41'1 1.4
2015-May-08 20:33N 35°27' E 139°39'0 0.0
2015-May-08 19:33N 35°27' E 139°39'0 0.0
2015-May-08 18:33N 35°27' E 139°39'0 0.0
2015-May-08 17:33N 35°27' E 139°39'0 0.0
2015-May-08 16:33N 35°27' E 139°39'0 0.0
2015-May-08 15:33N 35°27' E 139°39'0 0.0
2015-May-08 14:33N 35°27' E 139°39'0 0.0
2015-May-08 13:33N 35°27' E 139°39'0 0.0
2015-May-08 12:33N 35°27' E 139°39'0 0.0
2015-May-08 11:33N 35°27' E 139°39'0 0.0
2015-May-08 10:33N 35°27' E 139°39'0 0.0
2015-May-08 09:33N 35°27' E 139°39'0 0.0
2015-May-08 08:33N 35°27' E 139°39'0 0.0
2015-May-08 07:33N 35°27' E 139°39'0 0.3
2015-May-08 06:33N 35°27' E 139°39'0 0.0
2015-May-08 05:33N 35°27' E 139°39'0 0.0
2015-May-08 04:33N 35°27' E 139°39'3 3.3
2015-May-08 03:33N 35°24' E 139°39'1 0.6
2015-May-08 02:33N 35°24' E 139°38'  

Dump ship's entire track history